Current Weather Conditions from Arkansas, Oklahoma, Missouri & Kansas

As well as selected U.S. cities associated with XNA Flights


KVBT - Bentonville Arkansas, Airport
Updated: Thu, Feb-Thu-2019 2:56pm
Clear
Clear
 Wind from ESE
Wind: ESE 8 mph , 13 km/h
Temperature: 46°F , 8°C
Wind Chill: 42°F , 6°C
Dew Point: 32°F , 0°C
Humidity: 57%
Barometer: 30.12 inHg , 1020 hPa
Clouds: Clear
Visibility: 10 miles , 16 km
2019/02/21 20:56 KVBT 212056Z AUTO 11007KT 10SM CLR 08/00 A3012 RMK AO2 SLP210 T00830000 55012
KROG - Rogers Arkansas, Airport
Updated: Thu, Feb-Thu-2019 2:58pm
Clear
Clear
 Wind from E
Wind: E 6 mph , 9 km/h
Temperature: 46°F , 8°C
Wind Chill: 43°F , 6°C
Dew Point: 30°F , -1°C
Humidity: 53%
Barometer: 30.12 inHg , 1020 hPa
Clouds: Clear
Visibility: 10 miles , 16 km
2019/02/21 20:58 KROG 212058Z 08005KT 10SM CLR 08/M01 A3012 RMK AO2 SLP203 T00831011 55010
KXNA - Northwest Arkansas Regional Airport
Updated: Thu, Feb-Thu-2019 2:53pm
Mostly cloudy
Mostly cloudy
 Wind from E
Wind: E 9 mph , 15 km/h
Temperature: 48°F , 9°C
Wind Chill: 44°F , 7°C
Dew Point: 28°F , -2°C
Humidity: 46%
Barometer: 30.10 inHg , 1019.3 hPa
Clouds: Mostly cloudy
Visibility: 10 miles , 16 km
Cloud details: Mostly cloudy 11000 ft
2019/02/21 20:53 KXNA 212053Z 10008KT 10SM BKN110 09/M02 A3010 RMK AO2 SLP197 T00941017 55013
 
KSLG - Siloam Spring Arkansas, Airport
Updated: Thu, Feb-Thu-2019 2:56pm
Partly cloudy
Partly cloudy
 Wind from E
Wind: E 7 mph , 11 km/h
Temperature: 46°F , 8°C
Wind Chill: 42°F , 6°C
Dew Point: 34°F , 1°C
Humidity: 62%
Barometer: 30.09 inHg , 1019 hPa
Clouds: Partly cloudy
Visibility: 10 miles , 16 km
Cloud details: Partly cloudy 10000 ft
2019/02/21 20:56 KSLG 212056Z AUTO 09006KT 10SM SCT100 08/01 A3009 RMK AO2 SLP193 T00830006 56014
KASG - Springdale, Arkansas, Airport
Updated: Thu, Feb-Thu-2019 2:48pm
Mostly cloudy
Mostly cloudy
 Wind from E
Wind: E 12 mph , 19 km/h
Temperature: 46°F , 8°C
Wind Chill: 40°F , 4°C
Dew Point: 30°F , -1°C
Humidity: 53%
Barometer: 30.11 inHg , 1019.6 hPa
Clouds: Mostly cloudy
Visibility: 10 miles , 16 km
Cloud details: Mostly cloudy 12000 ft
2019/02/21 20:48 KASG 212048Z 08010KT 10SM BKN120 08/M01 A3011
KFYV - Fayetteville Arkansas, Airport
Updated: Thu, Feb-Thu-2019 2:53pm
Partly cloudy
Partly cloudy
 Wind from NE
Wind: NE 3 mph , 6 km/h
Temperature: 48°F , 9°C
Dew Point: 34°F , 1°C
Humidity: 58%
Barometer: 30.10 inHg , 1019.3 hPa
Clouds: Partly cloudy
Visibility: 10 miles , 16 km
Cloud details: Partly cloudy 11000 ft
2019/02/21 20:53 KFYV 212053Z 05003KT 10SM SCT110 09/01 A3010 RMK AO2 SLP198 T00940006 55005
 
KHRO - Harrison, Arkansas
Updated: Thu, Feb-Thu-2019 2:53pm
Overcast
Overcast
 Wind from ESE
Wind: ESE 13 mph , 20 km/h
Temperature: 43°F , 6°C
Wind Chill: 36°F , 2°C
Dew Point: 23°F , -5°C
Humidity: 46%
Barometer: 30.11 inHg , 1019.6 hPa
Clouds: Overcast
Visibility: 10 miles , 16 km
Cloud details: Overcast 11000 ft
2019/02/21 20:53 KHRO 212053Z AUTO 12011KT 10SM OVC110 06/M05 A3011 RMK AO2 SLP205 T00561050 56019
KFLP - Flippin, Arkansas
Updated: Thu, Feb-Thu-2019 2:56pm
Clear
Clear
 Wind from ENE
Wind: ENE 5 mph , 7 km/h
Temperature: 45°F , 7°C
Wind Chill: 42°F , 6°C
Dew Point: 27°F , -3°C
Humidity: 49%
Barometer: 30.15 inHg , 1021 hPa
Clouds: Clear
Visibility: 10 miles , 16 km
2019/02/21 20:56 KFLP 212056Z AUTO 06004KT 10SM CLR 07/M03 A3015 RMK AO2 SLP213 T00671033 56016
KBPK - Mountain Home, Arkansas
Updated: Thu, Feb-Thu-2019 2:53pm
Overcast
Overcast
 Wind from E
Wind: E 5 mph , 7 km/h
Temperature: 45°F , 7°C
Wind Chill: 42°F , 6°C
Dew Point: 25°F , -4°C
Humidity: 46%
Barometer: 30.14 inHg , 1020.7 hPa
Clouds: Overcast
Visibility: 10 miles , 16 km
Cloud details: Overcast 11000 ft
2019/02/21 20:53 KBPK 212053Z AUTO 09004KT 10SM OVC110 07/M04 A3014 RMK AO2 SLP209 T00671044 56010 TSNO
 
KCCA - Clinton, Arkansas
Updated: Thu, Feb-Thu-2019 3:35pm
Mostly cloudy
Mostly cloudy
 Wind from varies
Wind: varies 5 mph , 7 km/h
Temperature: 46°F , 8°C
Wind Chill: 44°F , 7°C
Dew Point: 32°F , 0°C
Humidity: 57%
Barometer: 30.16 inHg , 1021.3 hPa
Clouds: Mostly cloudy
Visibility: 10 miles , 16 km
Cloud details: Mostly cloudy 10000 ft
2019/02/21 21:35 KCCA 212135Z AUTO VRB04KT 10SM BKN100 08/00 A3016 RMK AO2
KRUE - Russellville, Arkansas
Updated: Thu, Feb-Thu-2019 2:53pm
Overcast
Overcast
 Wind from E
Wind: E 6 mph , 9 km/h
Temperature: 46°F , 8°C
Wind Chill: 43°F , 6°C
Dew Point: 34°F , 1°C
Humidity: 62%
Barometer: 30.14 inHg , 1020.7 hPa
Clouds: Overcast
Visibility: 10 miles , 16 km
Cloud details: Overcast 10000 ft
2019/02/21 20:53 KRUE 212053Z AUTO 09005KT 10SM OVC100 08/01 A3014 RMK AO2 SLP204 T00830011 55019
KBVX - Batesville, Arkansa
Updated: Thu, Feb-Thu-2019 2:56pm
Light rain, Overcast
Light rain, Overcast
 Wind from NNE
Wind: NNE 7 mph , 11 km/h
Temperature: 43°F , 6°C
Wind Chill: 39°F , 4°C
Dew Point: 34°F , 1°C
Humidity: 71%
Barometer: 30.15 inHg , 1021 hPa
Summary: Light rain
Clouds: Overcast
Visibility: 10 miles , 16 km
Cloud details: Few Clouds 4000 ft
Overcast 10000 ft
2019/02/21 20:56 KBVX 212056Z AUTO 02006KT 10SM -RA FEW040 OVC100 06/01 A3015 RMK AO2 SLP211 P0000 60000 T00610011 58018
 
KBYH - Blytheville, Arkansas
Updated: Thu, Feb-Thu-2019 1:50pm
NOT Current
Overcast
Overcast
 Wind from NE
Wind: NE 12 mph , 19 km/h, Gust: 21 mph , 33 km/h
Temperature: 46°F , 8°C
Wind Chill: 40°F , 4°C
Dew Point: 37°F , 3°C
Humidity: 71%
Barometer: 30.16 inHg , 1021.3 hPa
Clouds: Overcast
Visibility: 10 miles , 16 km
Cloud details: Mostly cloudy 12000 ft
Overcast 25000 ft
2019/02/21 19:50 KBYH 211950Z 05010G18KT 10SM BKN120 OVC250 08/03 A3016 RMK LAST
KM19 - Newport, Arkansas
Updated: Thu, Feb-Thu-2019 2:56pm
Light rain, Overcast
Light rain, Overcast
 Wind from NNE
Wind: NNE 14 mph , 22 km/h
Temperature: 41°F , 5°C
Wind Chill: 33°F , 1°C
Dew Point: 37°F , 3°C
Humidity: 87%
Barometer: 30.14 inHg , 1020.7 hPa
Summary: Light rain
Clouds: Overcast
Visibility: 10 miles , 16 km
Cloud details: Overcast 9000 ft
2019/02/21 20:56 KM19 212056Z AUTO 03012KT 10SM -RA OVC090 05/03 A3014 RMK AO2 SLP215 P0000 60001 T00500033 58011
KSRC - Searcy, Arkansas
Updated: Thu, Feb-Thu-2019 2:56pm
Light rain, Overcast
Light rain, Overcast
 Wind from NNE
Wind: NNE 9 mph , 15 km/h
Temperature: 43°F , 6°C
Wind Chill: 38°F , 3°C
Dew Point: 41°F , 5°C
Humidity: 93%
Barometer: 30.16 inHg , 1021.3 hPa
Summary: Light rain
Clouds: Overcast
Visibility: 10 miles , 16 km
Cloud details: Few Clouds 1500 ft
Overcast 10000 ft
2019/02/21 20:56 KSRC 212056Z AUTO 02008KT 10SM -RA FEW015 OVC100 06/05 A3016 RMK AO2 SLP222 P0002 60002 T00560050 55003
 
KARG - Walnut Ridge, Arkansas
Updated: Thu, Feb-Thu-2019 2:56pm
Light rain, Overcast
Light rain, Overcast
 Wind from NNE
Wind: NNE 10 mph , 17 km/h
Temperature: 43°F , 6°C
Wind Chill: 37°F , 3°C
Dew Point: 36°F , 2°C
Humidity: 76%
Barometer: 30.16 inHg , 1021.3 hPa
Summary: Light rain
Clouds: Overcast
Visibility: 5 miles , 8 km
Cloud details: Partly cloudy 7000 ft
Overcast 9000 ft
2019/02/21 20:56 KARG 212056Z AUTO 03009KT 5SM -RA SCT070 OVC090 06/02 A3016 RMK AO2 RAB31 SLP217 P0000 60000 T00560017 56023
KJBR - Jonesboro, Arkansas
Updated: Thu, Feb-Thu-2019 2:53pm
Light rain, Overcast
Light rain, Overcast
 Wind from NE
Wind: NE 15 mph , 24 km/h, Gust: 24 mph , 39 km/h
Temperature: 45°F , 7°C
Wind Chill: 38°F , 3°C
Dew Point: 37°F , 3°C
Humidity: 76%
Barometer: 30.13 inHg , 1020.3 hPa
Summary: Light rain
Clouds: Overcast
Visibility: 10 miles , 16 km
Cloud details: Overcast 9000 ft
2019/02/21 20:53 KJBR 212053Z AUTO 05013G21KT 10SM -RA OVC090 07/03 A3013 RMK AO2 RAB11 SLP204 P0000 60000 T00670028 56035
K4M9 - Corning, Arkansas
Updated: Thu, Feb-Thu-2019 3:35pm
Clear
Clear
 Wind from NE
Wind: NE 13 mph , 20 km/h
Temperature: 43°F , 6°C
Wind Chill: 36°F , 2°C
Dew Point: 34°F , 1°C
Humidity: 71%
Barometer: 30.19 inHg , 1022.4 hPa
Clouds: Clear
Visibility: 10 miles , 16 km
2019/02/21 21:35 K4M9 212135Z AUTO 04011KT 10SM CLR 06/01 A3019 RMK AO2 PWINO
 
KLRF - Little Rock Afb, Arkansas
Updated: Thu, Feb-Thu-2019 3:04pm
Light rain, Overcast
Light rain, Overcast
 Wind from calm
Wind: Calm
Temperature: 43°F , 6°C
Dew Point: 41°F , 5°C
Humidity: 93%
Barometer: 30.17 inHg , 1021.7 hPa
Summary: Light rain
Clouds: Overcast
Visibility: 9 miles , 14 km
Cloud details: Few Clouds 400 ft
Partly cloudy 1000 ft
Overcast 8000 ft
2019/02/21 21:04 KLRF 212104Z AUTO 00000KT 9SM -RA FEW004 SCT010 OVC080 06/05 A3017 RMK AO2 SLP222
KLIT - Little Rock, Arkansas
Updated: Thu, Feb-Thu-2019 2:53pm
Light rain, Mist, Overcast
Light rain, Mist, Overcast
 Wind from N
Wind: N 6 mph , 9 km/h
Temperature: 45°F , 7°C
Wind Chill: 42°F , 6°C
Dew Point: 39°F , 4°C
Humidity: 81%
Barometer: 30.17 inHg , 1021.7 hPa
Summary: Light rain, Mist
Clouds: Overcast
Visibility: 4 miles , 6 km
Cloud details: Partly cloudy 1500 ft
Overcast 7000 ft
2019/02/21 20:53 KLIT 212053Z 35005KT 4SM -RA BR SCT015 OVC070 07/04 A3017 RMK AO2 RAB05 SLP219 P0003 60006 T00670044 53010
KSGT - Stuttgart, Arkansas
Updated: Thu, Feb-Thu-2019 2:56pm
Rain, Overcast
Rain, Overcast
 Wind from NNE
Wind: NNE 7 mph , 11 km/h
Temperature: 46°F , 8°C
Wind Chill: 42°F , 6°C
Dew Point: 41°F , 5°C
Humidity: 82%
Barometer: 30.15 inHg , 1021 hPa
Summary: Rain
Clouds: Overcast
Visibility: 10 miles , 16 km
Cloud details: Overcast 7000 ft
2019/02/21 20:56 KSGT 212056Z AUTO 02006KT 10SM RA OVC070 08/05 A3015 RMK AO2 RAB02 SLP211 P0002 60004 T00780050 55012
 
KAWM - West Memphis, Arkansas
Updated: Wed, Feb-Wed-2019 3:53pm
NOT Current
Overcast
Overcast
 Wind from WSW
Wind: WSW 6 mph , 9 km/h
Temperature: 52°F , 11°C
Dew Point: 45°F , 7°C
Humidity: 77%
Barometer: 29.92 inHg , 1013.2 hPa
Clouds: Overcast
Visibility: 10 miles , 16 km
Cloud details: Overcast 1700 ft
2019/02/20 21:53 KAWM 202153Z AUTO 25005KT 10SM OVC017 11/07 A2992 RMK AO2 SLP133 T01110072 $
KFSM - Fort Smith, Arkansas
Updated: Thu, Feb-Thu-2019 2:53pm
Partly cloudy
Partly cloudy
 Wind from NE
Wind: NE 10 mph , 17 km/h
Temperature: 48°F , 9°C
Wind Chill: 44°F , 7°C
Dew Point: 36°F , 2°C
Humidity: 62%
Barometer: 30.11 inHg , 1019.6 hPa
Clouds: Partly cloudy
Visibility: 10 miles , 16 km
Cloud details: Partly cloudy 11000 ft
2019/02/21 20:53 KFSM 212053Z 05009KT 10SM SCT110 09/02 A3011 RMK AO2 SLP196 T00890022 58004
KMWT - Mount Ida, Arkansas
Updated: Thu, Feb-Thu-2019 3:33pm
Rain, Mist, Overcast
Rain, Mist, Overcast
 Wind from varies
Wind: varies 6 mph , 9 km/h
Temperature: 43°F , 6°C
Wind Chill: 39°F , 4°C
Dew Point: 41°F , 5°C
Humidity: 93%
Barometer: 30.07 inHg , 1018.3 hPa
Summary: Rain, Mist
Clouds: Overcast
Visibility: 6 miles , 10 km
Cloud details: Few Clouds 1000 ft
Partly cloudy 1400 ft
Overcast 9000 ft
2019/02/21 21:33 KMWT 212133Z AUTO VRB05KT 6SM RA BR FEW010 SCT014 OVC090 06/05 A3007 RMK AO2 P0006 T00610050
 
KMEZ - Mena, Arkansas
Updated: Thu, Feb-Thu-2019 3:35pm
Overcast
Overcast
 Wind from E
Wind: E 9 mph , 15 km/h
Temperature: 45°F , 7°C
Wind Chill: 40°F , 4°C
Dew Point: 45°F , 7°C
Humidity: 100%
Barometer: 30.04 inHg , 1017.3 hPa
Clouds: Overcast
Visibility: 10 miles , 16 km
Cloud details: Overcast 9500 ft
2019/02/21 21:35 KMEZ 212135Z AUTO 09008KT 10SM OVC095 07/07 A3004 RMK AO2
KHOT - Hot Springs, Arkansas
Updated: Thu, Feb-Thu-2019 2:53pm
Rain, Mist, Overcast
Rain, Mist, Overcast
 Wind from ENE
Wind: ENE 9 mph , 15 km/h
Temperature: 45°F , 7°C
Wind Chill: 40°F , 4°C
Dew Point: 43°F , 6°C
Humidity: 93%
Barometer: 30.11 inHg , 1019.6 hPa
Summary: Rain, Mist
Clouds: Overcast
Visibility: 5 miles , 8 km
Cloud details: Mostly cloudy 8000 ft
Overcast 10000 ft
2019/02/21 20:53 KHOT 212053Z AUTO 06008KT 5SM RA BR BKN080 OVC100 07/06 A3011 RMK AO2 SLP199 P0005 60007 T00670056 56021
KADF - Arkadelphia, Arkansas
Updated: Thu, Feb-Thu-2019 3:12pm
Light rain, Overcast
Light rain, Overcast
 Wind from NNE
Wind: NNE 6 mph , 9 km/h
Temperature: 45°F , 7°C
Wind Chill: 42°F , 6°C
Dew Point: 45°F , 7°C
Humidity: 100%
Barometer: 30.14 inHg , 1020.7 hPa
Summary: Light rain
Clouds: Overcast
Visibility: 10 miles , 16 km
Cloud details: Mostly cloudy 900 ft
Mostly cloudy 1200 ft
Overcast 7500 ft
2019/02/21 21:12 KADF 212112Z AUTO 03005KT 10SM -RA BKN009 BKN012 OVC075 07/07 A3014 RMK AO2 P0000
 
KSGT - Stuttgart, Arkansas
Updated: Thu, Feb-Thu-2019 2:56pm
Rain, Overcast
Rain, Overcast
 Wind from NNE
Wind: NNE 7 mph , 11 km/h
Temperature: 46°F , 8°C
Wind Chill: 42°F , 6°C
Dew Point: 41°F , 5°C
Humidity: 82%
Barometer: 30.15 inHg , 1021 hPa
Summary: Rain
Clouds: Overcast
Visibility: 10 miles , 16 km
Cloud details: Overcast 7000 ft
2019/02/21 20:56 KSGT 212056Z AUTO 02006KT 10SM RA OVC070 08/05 A3015 RMK AO2 RAB02 SLP211 P0002 60004 T00780050 55012
KPBF - Pine Bluff, Arkansas
Updated: Thu, Feb-Thu-2019 2:53pm
Light rain, Overcast
Light rain, Overcast
 Wind from NE
Wind: NE 12 mph , 19 km/h
Temperature: 45°F , 7°C
Wind Chill: 39°F , 4°C
Dew Point: 41°F , 5°C
Humidity: 87%
Barometer: 30.10 inHg , 1019.3 hPa
Summary: Light rain
Clouds: Overcast
Visibility: 10 miles , 16 km
Cloud details: Overcast 6000 ft
2019/02/21 20:53 KPBF 212053Z AUTO 05010KT 10SM -RA OVC060 07/05 A3010 RMK AO2 SLP193 P0004 60017 T00670050 55012
KSRC - Searcy, Arkansas
Updated: Thu, Feb-Thu-2019 2:56pm
Light rain, Overcast
Light rain, Overcast
 Wind from NNE
Wind: NNE 9 mph , 15 km/h
Temperature: 43°F , 6°C
Wind Chill: 38°F , 3°C
Dew Point: 41°F , 5°C
Humidity: 93%
Barometer: 30.16 inHg , 1021.3 hPa
Summary: Light rain
Clouds: Overcast
Visibility: 10 miles , 16 km
Cloud details: Few Clouds 1500 ft
Overcast 10000 ft
2019/02/21 20:56 KSRC 212056Z AUTO 02008KT 10SM -RA FEW015 OVC100 06/05 A3016 RMK AO2 SLP222 P0002 60002 T00560050 55003
 
KRUE - Russellville, Arkansas
Updated: Thu, Feb-Thu-2019 2:53pm
Overcast
Overcast
 Wind from E
Wind: E 6 mph , 9 km/h
Temperature: 46°F , 8°C
Wind Chill: 43°F , 6°C
Dew Point: 34°F , 1°C
Humidity: 62%
Barometer: 30.14 inHg , 1020.7 hPa
Clouds: Overcast
Visibility: 10 miles , 16 km
Cloud details: Overcast 10000 ft
2019/02/21 20:53 KRUE 212053Z AUTO 09005KT 10SM OVC100 08/01 A3014 RMK AO2 SLP204 T00830011 55019
KCCA - Clinton, Arkansas
Updated: Thu, Feb-Thu-2019 3:35pm
Mostly cloudy
Mostly cloudy
 Wind from varies
Wind: varies 5 mph , 7 km/h
Temperature: 46°F , 8°C
Wind Chill: 44°F , 7°C
Dew Point: 32°F , 0°C
Humidity: 57%
Barometer: 30.16 inHg , 1021.3 hPa
Clouds: Mostly cloudy
Visibility: 10 miles , 16 km
Cloud details: Mostly cloudy 10000 ft
2019/02/21 21:35 KCCA 212135Z AUTO VRB04KT 10SM BKN100 08/00 A3016 RMK AO2
KLLQ - Monticello, Arkansas
Updated: Thu, Feb-Thu-2019 3:09pm
Light rain, Overcast
Light rain, Overcast
 Wind from NE
Wind: NE 9 mph , 15 km/h
Temperature: 46°F , 8°C
Wind Chill: 41°F , 5°C
Dew Point: 43°F , 6°C
Humidity: 87%
Barometer: 30.08 inHg , 1018.6 hPa
Summary: Light rain
Clouds: Overcast
Visibility: 7 miles , 11 km
Cloud details: Mostly cloudy 800 ft
Mostly cloudy 1100 ft
Overcast 3700 ft
2019/02/21 21:09 KLLQ 212109Z AUTO 05008KT 7SM -RA BKN008 BKN011 OVC037 08/06 A3008 RMK AO2 P0001 T00780061
 
KCDH - Camden, Arkansas
Updated: Thu, Feb-Thu-2019 3:35pm
Rain, Overcast
Rain, Overcast
 Wind from NE
Wind: NE 8 mph , 13 km/h
Temperature: 45°F , 7°C
Wind Chill: 41°F , 5°C
Dew Point: 41°F , 5°C
Humidity: 87%
Barometer: 30.10 inHg , 1019.3 hPa
Summary: Rain
Clouds: Overcast
Visibility: 1 1/4 miles , 2 km
Cloud details: Mostly cloudy 1300 ft
Mostly cloudy 2000 ft
Overcast 5000 ft
2019/02/21 21:35 KCDH 212135Z AUTO 04007KT 1 1/4SM RA BKN013 BKN020 OVC050 07/05 A3010 RMK AO2
KM19 - Newport, Arkansas
Updated: Thu, Feb-Thu-2019 2:56pm
Light rain, Overcast
Light rain, Overcast
 Wind from NNE
Wind: NNE 14 mph , 22 km/h
Temperature: 41°F , 5°C
Wind Chill: 33°F , 1°C
Dew Point: 37°F , 3°C
Humidity: 87%
Barometer: 30.14 inHg , 1020.7 hPa
Summary: Light rain
Clouds: Overcast
Visibility: 10 miles , 16 km
Cloud details: Overcast 9000 ft
2019/02/21 20:56 KM19 212056Z AUTO 03012KT 10SM -RA OVC090 05/03 A3014 RMK AO2 SLP215 P0000 60001 T00500033 58011
KDEQ - De Queen, Arkansas
Updated: Thu, Feb-Thu-2019 2:53pm
Light rain, Overcast
Light rain, Overcast
 Wind from E
Wind: E 10 mph , 17 km/h
Temperature: 46°F , 8°C
Wind Chill: 41°F , 5°C
Dew Point: 45°F , 7°C
Humidity: 93%
Barometer: 30.05 inHg , 1017.6 hPa
Summary: Light rain
Clouds: Overcast
Visibility: 9 miles , 14 km
Cloud details: Overcast 8000 ft
2019/02/21 20:53 KDEQ 212053Z AUTO 08009KT 9SM -RA OVC080 08/07 A3005 RMK AO2 RAB03 SLP177 P0001 60001 T00780067 58013
 
KTXK - Texarkana, Arkansas
Updated: Thu, Feb-Thu-2019 3:27pm
Overcast
Overcast
 Wind from ENE
Wind: ENE 10 mph , 17 km/h
Temperature: 45°F , 7°C
Wind Chill: 40°F , 4°C
Dew Point: 43°F , 6°C
Humidity: 93%
Barometer: 30.05 inHg , 1017.6 hPa
Clouds: Overcast
Visibility: 10 miles , 16 km
Cloud details: Mostly cloudy 900 ft
Overcast 5500 ft
2019/02/21 21:27 KTXK 212127Z 06009KT 10SM BKN009 OVC055 07/06 A3005 RMK AO2 CIG 007V013 T00720061
KELD - El Dorado, Arkansas
Updated: Thu, Feb-Thu-2019 2:53pm
Light rain, Overcast
Light rain, Overcast
 Wind from NE
Wind: NE 6 mph , 9 km/h
Temperature: 45°F , 7°C
Wind Chill: 42°F , 6°C
Dew Point: 45°F , 7°C
Humidity: 100%
Barometer: 30.09 inHg , 1019 hPa
Summary: Light rain
Clouds: Overcast
Visibility: 8 miles , 13 km
Cloud details: Few Clouds 1200 ft
Overcast 2300 ft
2019/02/21 20:53 KELD 212053Z AUTO 04005KT 8SM -RA FEW012 OVC023 07/07 A3009 RMK AO2 SLP191 P0001 60020 T00670067 53006 $
KCSM - Clinton, Oklahoma
Updated: Thu, Feb-Thu-2019 2:53pm
Overcast
Overcast
 Wind from SSE
Wind: SSE 22 mph , 35 km/h, Gust: 29 mph , 46 km/h
Temperature: 54°F , 12°C
Dew Point: 28°F , -2°C
Humidity: 38%
Barometer: 29.92 inHg , 1013.2 hPa
Clouds: Overcast
Visibility: 10 miles , 16 km
Cloud details: Overcast 7500 ft
2019/02/21 20:53 KCSM 212053Z 16019G25KT 10SM OVC075 12/M02 A2992 RMK AO2 PK WND 16029/2020 SLP132 T01221022 55020
 
KHBR - Hobart, Oklahoma
Updated: Thu, Feb-Thu-2019 2:53pm
Clear
Clear
 Wind from SSE
Wind: SSE 25 mph , 41 km/h, Gust: 31 mph , 50 km/h
Temperature: 59°F , 15°C
Dew Point: 28°F , -2°C
Humidity: 31%
Barometer: 29.91 inHg , 1012.9 hPa
Clouds: Clear
Visibility: 10 miles , 16 km
2019/02/21 20:53 KHBR 212053Z AUTO 15022G27KT 10SM CLR 15/M02 A2991 RMK AO2 PK WND 17030/1956 SLP131 T01501022 56022
KLTS - Altus Afb, Oklahoma
Updated: Thu, Feb-Thu-2019 2:56pm
Overcast
Overcast
 Wind from SE
Wind: SE 23 mph , 37 km/h, Gust: 29 mph , 46 km/h
Temperature: 57°F , 14°C
Dew Point: 25°F , -4°C
Humidity: 29%
Barometer: 29.90 inHg , 1012.5 hPa
Clouds: Overcast
Visibility: 10 miles , 16 km
Cloud details: Few Clouds 7000 ft
Overcast 8500 ft
2019/02/21 20:56 KLTS 212056Z AUTO 13020G25KT 10SM FEW070 OVC085 14/M04 A2990 RMK AO2 PK WND 13029/41 SLP126 T01401042 57022 $
KFSI - Fort Sill, Oklahoma
Updated: Thu, Feb-Thu-2019 2:56pm
Clear
Clear
 Wind from SSE
Wind: SSE 16 mph , 26 km/h, Gust: 24 mph , 39 km/h
Temperature: 57°F , 14°C
Dew Point: 37°F , 3°C
Humidity: 48%
Barometer: 29.93 inHg , 1013.5 hPa
Clouds: Clear
Visibility: 10 miles , 16 km
2019/02/21 20:56 KFSI 212056Z AUTO 15014G21KT 10SM CLR 14/03 A2993 RMK AO2 SLP136 T01350027 55027
 
KGAG - Gage, Oklahoma
Updated: Thu, Feb-Thu-2019 2:53pm
Clear
Clear
 Wind from SSE
Wind: SSE 28 mph , 44 km/h, Gust: 37 mph , 59 km/h
Temperature: 57°F , 14°C
Dew Point: 28°F , -2°C
Humidity: 33%
Barometer: 29.86 inHg , 1011.2 hPa
Clouds: Clear
Visibility: 10 miles , 16 km
2019/02/21 20:53 KGAG 212053Z AUTO 15024G32KT 10SM CLR 14/M02 A2986 RMK AO2 PK WND 15034/2014 SLP110 T01391022 56019
KWWR - Woodward, Oklahoma
Updated: Thu, Feb-Thu-2019 3:35pm
Partly cloudy
Partly cloudy
 Wind from SSE
Wind: SSE 25 mph , 41 km/h, Gust: 33 mph , 54 km/h
Temperature: 54°F , 12°C
Dew Point: 23°F , -5°C
Humidity: 30%
Barometer: 29.90 inHg , 1012.5 hPa
Clouds: Partly cloudy
Visibility: 10 miles , 16 km
Cloud details: Partly cloudy 7000 ft
2019/02/21 21:35 KWWR 212135Z AUTO 15022G29KT 10SM SCT070 12/M05 A2990 RMK AO2
KLAW - Lawton, Oklahoma
Updated: Thu, Feb-Thu-2019 2:53pm
Clear
Clear
 Wind from SSE
Wind: SSE 18 mph , 30 km/h, Gust: 26 mph , 43 km/h
Temperature: 55°F , 13°C
Dew Point: 32°F , 0°C
Humidity: 41%
Barometer: 29.94 inHg , 1013.9 hPa
Clouds: Clear
Visibility: 10 miles , 16 km
2019/02/21 20:53 KLAW 212053Z 15016G23KT 10SM CLR 13/00 A2994 RMK AO2 SLP141 T01330000 55026
 
KOKC - Oklahoma City, Oklahoma
Updated: Thu, Feb-Thu-2019 2:52pm
Mostly cloudy
Mostly cloudy
 Wind from SE
Wind: SE 23 mph , 37 km/h, Gust: 29 mph , 46 km/h
Temperature: 55°F , 13°C
Dew Point: 30°F , -1°C
Humidity: 38%
Barometer: 29.96 inHg , 1014.6 hPa
Clouds: Mostly cloudy
Visibility: 10 miles , 16 km
Cloud details: Few Clouds 15000 ft
Mostly cloudy 25000 ft
2019/02/21 20:52 KOKC 212052Z 14020G25KT 10SM FEW150 BKN250 13/M01 A2996 RMK AO2 PK WND 13027/2035 SLP147 T01281006 56025
KEND - Enid/Vance Afb, Oklahoma
Updated: Thu, Feb-Thu-2019 2:56pm
Partly cloudy
Partly cloudy
 Wind from SE
Wind: SE 17 mph , 28 km/h, Gust: 25 mph , 41 km/h
Temperature: 57°F , 14°C
Dew Point: 32°F , 0°C
Humidity: 39%
Barometer: 29.96 inHg , 1014.6 hPa
Clouds: Partly cloudy
Visibility: 10 miles , 16 km
Cloud details: Partly cloudy 10000 ft
Partly cloudy 20000 ft
2019/02/21 20:56 KEND 212056Z 13015G22KT 10SM SCT100 SCT200 14/00 A2996 RMK AO2A SLP152 T01371004 57021 $
KFDR - Frederick/Altus, Oklahoma
Updated: Thu, Feb-Thu-2019 2:53pm
Overcast
Overcast
 Wind from SSE
Wind: SSE 18 mph , 30 km/h, Gust: 24 mph , 39 km/h
Temperature: 55°F , 13°C
Dew Point: 30°F , -1°C
Humidity: 38%
Barometer: 29.91 inHg , 1012.9 hPa
Clouds: Overcast
Visibility: 10 miles , 16 km
Cloud details: Overcast 7000 ft
2019/02/21 20:53 KFDR 212053Z AUTO 16016G21KT 10SM OVC070 13/M01 A2991 RMK AO2 PK WND 14029/1958 SLP127 T01331006 55016
 
KOUN - Norman, Oklahoma
Updated: Thu, Feb-Thu-2019 2:47pm
Clear
Clear
 Wind from ESE
Wind: ESE 23 mph , 37 km/h, Gust: 29 mph , 46 km/h
Temperature: 55°F , 13°C
Dew Point: 34°F , 1°C
Humidity: 44%
Barometer: 29.93 inHg , 1013.5 hPa
Clouds: Clear
Visibility: 10 miles , 16 km
2019/02/21 20:47 KOUN 212047Z 11020G25KT 10SM CLR 13/01 A2993
KTIK - Tinker Afb, Oklahoma
Updated: Thu, Feb-Thu-2019 3:30pm
Clear
Clear
 Wind from SSE
Wind: SSE 12 mph , 19 km/h, Gust: 23 mph , 37 km/h
Temperature: 54°F , 12°C
Dew Point: 30°F , -1°C
Humidity: 41%
Barometer: 29.95 inHg , 1014.2 hPa
Clouds: Clear
Visibility: 10 miles , 16 km
2019/02/21 21:30 KTIK 212130Z AUTO 16010G20KT 10SM CLR 12/M01 A2995 RMK AO2 WSHFT 20 SLP152
KGOK - Guthrie, Oklahoma
Updated: Thu, Feb-Thu-2019 2:53pm
Clear
Clear
 Wind from SE
Wind: SE 18 mph , 30 km/h, Gust: 26 mph , 43 km/h
Temperature: 57°F , 14°C
Dew Point: 28°F , -2°C
Humidity: 33%
Barometer: 29.96 inHg , 1014.6 hPa
Clouds: Clear
Visibility: 10 miles , 16 km
2019/02/21 20:53 KGOK 212053Z AUTO 14016G23KT 10SM CLR 14/M02 A2996 RMK AO2 SLP151 T01391022 58020
 
KSNL - Shawnee, Oklahoma
Updated: Thu, Feb-Thu-2019 3:35pm
Clear
Clear
 Wind from SSE
Wind: SSE 20 mph , 31 km/h
Temperature: 54°F , 12°C
Dew Point: 32°F , 0°C
Humidity: 44%
Barometer: 29.98 inHg , 1015.2 hPa
Clouds: Clear
Visibility: 10 miles , 16 km
2019/02/21 21:35 KSNL 212135Z AUTO 15017KT 10SM CLR 12/00 A2998 RMK AO2 T01210003
KCQB - Chandler, Oklahoma
Updated: Thu, Feb-Thu-2019 3:15pm
Clear
Clear
 Wind from ESE
Wind: ESE 13 mph , 20 km/h
Temperature: 54°F , 12°C
Dew Point: 34°F , 1°C
Humidity: 47%
Barometer: 30.00 inHg , 1015.9 hPa
Clouds: Clear
Visibility: 10 miles , 16 km
2019/02/21 21:15 KCQB 212115Z AUTO 12011KT 10SM CLR 12/01 A3000 RMK AO2 T01200005
KPVJ - Pauls Valley, Oklahoma
Updated: Thu, Feb-Thu-2019 3:35pm
Clear
Clear
 Wind from ESE
Wind: ESE 12 mph , 19 km/h, Gust: 22 mph , 35 km/h
Temperature: 50°F , 10°C
Wind Chill: 45°F , 7°C
Dew Point: 36°F , 2°C
Humidity: 58%
Barometer: 29.97 inHg , 1014.9 hPa
Clouds: Clear
Visibility: 10 miles , 16 km
2019/02/21 21:35 KPVJ 212135Z AUTO 12010G19KT 10SM CLR 10/02 A2997 RMK AO2 T01030018
 
KEND - Enid/Vance Afb, Oklahoma
Updated: Thu, Feb-Thu-2019 2:56pm
Partly cloudy
Partly cloudy
 Wind from SE
Wind: SE 17 mph , 28 km/h, Gust: 25 mph , 41 km/h
Temperature: 57°F , 14°C
Dew Point: 32°F , 0°C
Humidity: 39%
Barometer: 29.96 inHg , 1014.6 hPa
Clouds: Partly cloudy
Visibility: 10 miles , 16 km
Cloud details: Partly cloudy 10000 ft
Partly cloudy 20000 ft
2019/02/21 20:56 KEND 212056Z 13015G22KT 10SM SCT100 SCT200 14/00 A2996 RMK AO2A SLP152 T01371004 57021 $
KSWO - Stillwater, Oklahoma
Updated: Thu, Feb-Thu-2019 2:53pm
Clear
Clear
 Wind from SE
Wind: SE 17 mph , 28 km/h, Gust: 25 mph , 41 km/h
Temperature: 57°F , 14°C
Dew Point: 28°F , -2°C
Humidity: 33%
Barometer: 29.99 inHg , 1015.6 hPa
Clouds: Clear
Visibility: 10 miles , 16 km
2019/02/21 20:53 KSWO 212053Z 13015G22KT 10SM CLR 14/M02 A2999 RMK AO2 SLP156 T01391022 58018
KFSI - Fort Sill, Oklahoma
Updated: Thu, Feb-Thu-2019 2:56pm
Clear
Clear
 Wind from SSE
Wind: SSE 16 mph , 26 km/h, Gust: 24 mph , 39 km/h
Temperature: 57°F , 14°C
Dew Point: 37°F , 3°C
Humidity: 48%
Barometer: 29.93 inHg , 1013.5 hPa
Clouds: Clear
Visibility: 10 miles , 16 km
2019/02/21 20:56 KFSI 212056Z AUTO 15014G21KT 10SM CLR 14/03 A2993 RMK AO2 SLP136 T01350027 55027
 
KDUC - Duncan, Oklahoma
Updated: Thu, Feb-Thu-2019 3:15pm
Clear
Clear
 Wind from SE
Wind: SE 17 mph , 28 km/h
Temperature: 54°F , 12°C
Dew Point: 34°F , 1°C
Humidity: 47%
Barometer: 29.96 inHg , 1014.6 hPa
Clouds: Clear
Visibility: 10 miles , 16 km
2019/02/21 21:15 KDUC 212115Z AUTO 14015KT 10SM CLR 12/01 A2996 RMK AO2 T01190008
KOKM - Okmulgee, Oklahoma
Updated: Thu, Feb-Thu-2019 3:35pm
Clear
Clear
 Wind from E
Wind: E 16 mph , 26 km/h, Gust: 24 mph , 39 km/h
Temperature: 48°F , 9°C
Wind Chill: 42°F , 6°C
Dew Point: 36°F , 2°C
Humidity: 62%
Barometer: 30.04 inHg , 1017.3 hPa
Clouds: Clear
Visibility: 10 miles , 16 km
2019/02/21 21:35 KOKM 212135Z AUTO 09014G21KT 10SM CLR 09/02 A3004 RMK AO2 T00910022
KMLC - Mcalester, Oklahoma
Updated: Thu, Feb-Thu-2019 2:53pm
Partly cloudy
Partly cloudy
 Wind from ENE
Wind: ENE 5 mph , 7 km/h
Temperature: 48°F , 9°C
Wind Chill: 46°F , 8°C
Dew Point: 36°F , 2°C
Humidity: 62%
Barometer: 30.04 inHg , 1017.3 hPa
Clouds: Partly cloudy
Visibility: 10 miles , 16 km
Cloud details: Partly cloudy 12000 ft
2019/02/21 20:53 KMLC 212053Z AUTO 06004KT 10SM SCT120 09/02 A3004 RMK AO2 SLP172 T00940022 58018
 
KMKO - Muskogee, Oklahoma
Updated: Thu, Feb-Thu-2019 2:53pm
Few Clouds
Few Clouds
 Wind from ESE
Wind: ESE 12 mph , 19 km/h
Temperature: 48°F , 9°C
Wind Chill: 43°F , 6°C
Dew Point: 37°F , 3°C
Humidity: 66%
Barometer: 30.09 inHg , 1019 hPa
Clouds: Few Clouds
Visibility: 10 miles , 16 km
Cloud details: Few Clouds 12000 ft
2019/02/21 20:53 KMKO 212053Z AUTO 12010KT 10SM FEW120 09/03 A3009 RMK AO2 SLP191 T00940033 56010
KRVS - Tulsa, Oklahoma
Updated: Thu, Feb-Thu-2019 2:53pm
Clear
Clear
 Wind from ESE
Wind: ESE 16 mph , 26 km/h
Temperature: 50°F , 10°C
Wind Chill: 44°F , 7°C
Dew Point: 34°F , 1°C
Humidity: 54%
Barometer: 30.06 inHg , 1017.9 hPa
Clouds: Clear
Visibility: 10 miles , 16 km
2019/02/21 20:53 KRVS 212053Z 12014KT 10SM CLR 10/01 A3006 RMK AO2 SLP185 T01000011 58014
KGZL - Stigler, Oklahoma
Updated: Thu, Feb-Thu-2019 1:35pm
NOT Current

 
2019/02/14 19:35 KGZL 141935Z AUTO RMK AO2
 
KADH - Ada, Oklahoma
Updated: Thu, Feb-Thu-2019 3:35pm
Clear
Clear
 Wind from SE
Wind: SE 13 mph , 20 km/h
Temperature: 50°F , 10°C
Wind Chill: 45°F , 7°C
Dew Point: 36°F , 2°C
Humidity: 58%
Barometer: 30.00 inHg , 1015.9 hPa
Clouds: Clear
Visibility: 10 miles , 16 km
2019/02/21 21:35 KADH 212135Z AUTO 13011KT 10SM CLR 10/02 A3000 RMK AO2
KAQR - Atoka, Oklahoma
Updated: Thu, Feb-Thu-2019 3:15pm
Overcast
Overcast
 Wind from ESE
Wind: ESE 7 mph , 11 km/h
Temperature: 46°F , 8°C
Wind Chill: 42°F , 6°C
Dew Point: 37°F , 3°C
Humidity: 71%
Barometer: 30.04 inHg , 1017.3 hPa
Clouds: Overcast
Visibility: 10 miles , 16 km
Cloud details: Overcast 8000 ft
2019/02/21 21:15 KAQR 212115Z AUTO 11006KT 10SM OVC080 08/03 A3004 RMK AO2
KJSV - Sallisaw, Oklahoma
Updated: Thu, Feb-Thu-2019 3:35pm
Clear
Clear
 Wind from E
Wind: E 9 mph , 15 km/h
Temperature: 48°F , 9°C
Wind Chill: 44°F , 7°C
Dew Point: 36°F , 2°C
Humidity: 62%
Barometer: 30.06 inHg , 1017.9 hPa
Clouds: Clear
Visibility: 10 miles , 16 km
2019/02/21 21:35 KJSV 212135Z AUTO 09008KT 10SM CLR 09/02 A3006 RMK AO2
 
KTQH - Tahlequah, Oklahoma
Updated: Thu, Feb-Thu-2019 3:35pm
Clear
Clear
 Wind from ESE
Wind: ESE 9 mph , 15 km/h
Temperature: 46°F , 8°C
Wind Chill: 41°F , 5°C
Dew Point: 36°F , 2°C
Humidity: 66%
Barometer: 30.05 inHg , 1017.6 hPa
Clouds: Clear
Visibility: 10 miles , 16 km
2019/02/21 21:35 KTQH 212135Z AUTO 11008KT 10SM CLR 08/02 A3005 RMK AO2
KGCM - Claremore, Oklahoma
Updated: Thu, Feb-Thu-2019 3:35pm
Clear
Clear
 Wind from SE
Wind: SE 8 mph , 13 km/h
Temperature: 50°F , 10°C
Wind Chill: 47°F , 8°C
Dew Point: 34°F , 1°C
Humidity: 54%
Barometer: 30.08 inHg , 1018.6 hPa
Clouds: Clear
Visibility: 10 miles , 16 km
2019/02/21 21:35 KGCM 212135Z AUTO 14007KT 10SM CLR 10/01 A3008 RMK AO2 TSNO
KRKR - Poteau, Oklahoma
Updated: Thu, Feb-Thu-2019 3:35pm
Overcast
Overcast
 Wind from calm
Wind: Calm
Temperature: 46°F , 8°C
Dew Point: 34°F , 1°C
Humidity: 62%
Barometer: 30.07 inHg , 1018.3 hPa
Clouds: Overcast
Visibility: 10 miles , 16 km
Cloud details: Overcast 10000 ft
2019/02/21 21:35 KRKR 212135Z AUTO 00000KT 10SM OVC100 08/01 A3007 RMK AO2
 
KGMJ - Grove, Oklahoma
Updated: Thu, Feb-Thu-2019 3:35pm
Partly cloudy
Partly cloudy
 Wind from E
Wind: E 7 mph , 11 km/h
Temperature: 46°F , 8°C
Wind Chill: 42°F , 6°C
Dew Point: 32°F , 0°C
Humidity: 57%
Barometer: 30.11 inHg , 1019.6 hPa
Clouds: Partly cloudy
Visibility: 10 miles , 16 km
Cloud details: Partly cloudy 12000 ft
2019/02/21 21:35 KGMJ 212135Z AUTO 09006KT 10SM SCT120 08/00 A3011 RMK AO2
K4O4 - Idabel, Oklahoma
Updated: Thu, Feb-Thu-2019 3:35pm
Partly cloudy
Partly cloudy
 Wind from E
Wind: E 15 mph , 24 km/h, Gust: 22 mph , 35 km/h
Temperature: 43°F , 6°C
Wind Chill: 36°F , 2°C
Dew Point: 39°F , 4°C
Humidity: 87%
Barometer: 30.03 inHg , 1016.9 hPa
Clouds: Partly cloudy
Visibility: 10 miles , 16 km
Cloud details: Partly cloudy 8000 ft
2019/02/21 21:35 K4O4 212135Z AUTO 10013G19KT 10SM SCT080 06/04 A3003 RMK AO2
KHHW - Hugo, Oklahoma
Updated: Thu, Feb-Thu-2019 3:35pm
Mostly cloudy
Mostly cloudy
 Wind from E
Wind: E 15 mph , 24 km/h
Temperature: 48°F , 9°C
Wind Chill: 42°F , 6°C
Dew Point: 41°F , 5°C
Humidity: 76%
Barometer: 30.01 inHg , 1016.3 hPa
Clouds: Mostly cloudy
Visibility: 10 miles , 16 km
Cloud details: Mostly cloudy 1700 ft
Mostly cloudy 8000 ft
2019/02/21 21:35 KHHW 212135Z AUTO 10013KT 10SM BKN017 BKN080 09/05 A3001 RMK AO2 T00930048
 
KDUA - Durant, Oklahoma
Updated: Thu, Feb-Thu-2019 3:35pm
Overcast
Overcast
 Wind from E
Wind: E 9 mph , 15 km/h
Temperature: 45°F , 7°C
Wind Chill: 40°F , 4°C
Dew Point: 39°F , 4°C
Humidity: 81%
Barometer: 30.03 inHg , 1016.9 hPa
Clouds: Overcast
Visibility: 10 miles , 16 km
Cloud details: Partly cloudy 1600 ft
Overcast 7500 ft
2019/02/21 21:35 KDUA 212135Z AUTO 09008KT 10SM SCT016 OVC075 07/04 A3003 RMK AO2
KSTJ - St. Joseph, Missouri
Updated: Thu, Feb-Thu-2019 2:53pm
Clear
Clear
 Wind from E
Wind: E 8 mph , 13 km/h
Temperature: 37°F , 3°C
Wind Chill: 31°F , -1°C
Dew Point: 19°F , -7°C
Humidity: 48%
Barometer: 30.18 inHg , 1022 hPa
Clouds: Clear
Visibility: 10 miles , 16 km
2019/02/21 20:53 KSTJ 212053Z 10007KT 10SM CLR 03/M07 A3018 RMK AO2 SLP228 T00331072 55013
KMCI - Kansas City/Intl, Missouri
Updated: Thu, Feb-Thu-2019 2:53pm
Overcast
Overcast
 Wind from ESE
Wind: ESE 12 mph , 19 km/h
Temperature: 37°F , 3°C
Wind Chill: 29°F , -2°C
Dew Point: 21°F , -6°C
Humidity: 52%
Barometer: 30.17 inHg , 1021.7 hPa
Clouds: Overcast
Visibility: 10 miles , 16 km
Cloud details: Few Clouds 15000 ft
Overcast 20000 ft
2019/02/21 20:53 KMCI 212053Z 11010KT 10SM FEW150 OVC200 03/M06 A3017 RMK AO2 SLP224 T00331056 55002
 
KMKC - Kansas City/Dntn, Missouri
Updated: Thu, Feb-Thu-2019 2:54pm
Clear
Clear
 Wind from ENE
Wind: ENE 9 mph , 15 km/h
Temperature: 39°F , 4°C
Wind Chill: 33°F , 1°C
Dew Point: 21°F , -6°C
Humidity: 48%
Barometer: 30.17 inHg , 1021.7 hPa
Clouds: Clear
Visibility: 10 miles , 16 km
2019/02/21 20:54 KMKC 212054Z 07008KT 10SM CLR 04/M06 A3017 RMK AO2 SLP222 T00441056 55003
KCDJ - Chillicothe, Missouri
Updated: Thu, Feb-Thu-2019 2:52pm

 Wind from E
Wind: E 6 mph , 9 km/h
Temperature: 37°F , 3°C
Wind Chill: 32°F , 0°C
Dew Point: 19°F , -7°C
Humidity: 48%
Barometer: 30.22 inHg , 1023.4 hPa
2019/02/21 20:52 KCDJ 212052Z AUTO 08005KT 03/M07 A3022 RMK AO1 SLP251 T00331067 55011
KIRK - Kirksville, Missouri
Updated: Thu, Feb-Thu-2019 2:55pm
Clear
Clear
 Wind from ENE
Wind: ENE 6 mph , 9 km/h
Temperature: 37°F , 3°C
Wind Chill: 32°F , 0°C
Dew Point: 21°F , -6°C
Humidity: 52%
Barometer: 30.23 inHg , 1023.7 hPa
Clouds: Clear
Visibility: 10 miles , 16 km
2019/02/21 20:55 KIRK 212055Z AUTO 06005KT 10SM CLR 03/M06 A3023 RMK AO2 SLP249 T00331056 55007
 
KSZL - Whiteman Afb, Missouri
Updated: Thu, Feb-Thu-2019 2:56pm
Overcast
Overcast
 Wind from E
Wind: E 7 mph , 11 km/h
Temperature: 37°F , 3°C
Wind Chill: 32°F , 0°C
Dew Point: 25°F , -4°C
Humidity: 60%
Barometer: 30.15 inHg , 1021 hPa
Clouds: Overcast
Visibility: 10 miles , 16 km
Cloud details: Overcast 13000 ft
2019/02/21 20:56 KSZL 212056Z 09006KT 10SM OVC130 03/M04 A3015 RMK AO2A SLP221 T00341036 55004 $
KDMO - Sedalia, Missouri
Updated: Thu, Feb-Thu-2019 2:53pm
Clear
Clear
 Wind from E
Wind: E 7 mph , 11 km/h
Temperature: 37°F , 3°C
Wind Chill: 32°F , 0°C
Dew Point: 27°F , -3°C
Humidity: 65%
Barometer: 30.21 inHg , 1023 hPa
Clouds: Clear
Visibility: 10 miles , 16 km
2019/02/21 20:53 KDMO 212053Z AUTO 08006KT 10SM CLR 03/M03 A3021 RMK AO2 SLP237 T00281033 55006
KGLY - Clinton, Missouri
Updated: Thu, Feb-Thu-2019 3:35pm
Clear
Clear
 Wind from E
Wind: E 7 mph , 11 km/h
Temperature: 39°F , 4°C
Wind Chill: 34°F , 1°C
Dew Point: 28°F , -2°C
Humidity: 65%
Barometer: 30.18 inHg , 1022 hPa
Clouds: Clear
Visibility: 9 miles , 14 km
2019/02/21 21:35 KGLY 212135Z AUTO 08006KT 9SM CLR 04/M02 A3018 RMK AO2
 
KCOU - Columbia, Missouri
Updated: Thu, Feb-Thu-2019 2:54pm
Few Clouds
Few Clouds
 Wind from E
Wind: E 7 mph , 11 km/h
Temperature: 37°F , 3°C
Wind Chill: 32°F , 0°C
Dew Point: 21°F , -6°C
Humidity: 52%
Barometer: 30.22 inHg , 1023.4 hPa
Clouds: Few Clouds
Visibility: 10 miles , 16 km
Cloud details: Few Clouds 12000 ft
2019/02/21 20:54 KCOU 212054Z 08006KT 10SM FEW120 03/M06 A3022 RMK AO2 SLP240 T00331056 55002
KJEF - Jefferson City, Missouri
Updated: Thu, Feb-Thu-2019 2:53pm
Clear
Clear
 Wind from NNE
Wind: NNE 3 mph , 6 km/h
Temperature: 43°F , 6°C
Dew Point: 23°F , -5°C
Humidity: 46%
Barometer: 30.23 inHg , 1023.7 hPa
Clouds: Clear
Visibility: 10 miles , 16 km
2019/02/21 20:53 KJEF 212053Z 03003KT 10SM CLR 06/M05 A3023 RMK AO2 SLP230 T00611050 55003
KVIH - Vichy/Rolla, Missouri
Updated: Thu, Feb-Thu-2019 2:53pm
Few Clouds
Few Clouds
 Wind from E
Wind: E 6 mph , 9 km/h
Temperature: 41°F , 5°C
Wind Chill: 37°F , 3°C
Dew Point: 27°F , -3°C
Humidity: 57%
Barometer: 30.21 inHg , 1023 hPa
Clouds: Few Clouds
Visibility: 10 miles , 16 km
Cloud details: Few Clouds 12000 ft
2019/02/21 20:53 KVIH 212053Z AUTO 09005KT 10SM FEW120 05/M03 A3021 RMK AO2 SLP237 T00501033 55007
 
KTBN - Fort Leonard Wood, Missouri
Updated: Thu, Feb-Thu-2019 2:56pm
Few Clouds
Few Clouds
 Wind from ENE
Wind: ENE 7 mph , 11 km/h
Temperature: 43°F , 6°C
Wind Chill: 39°F , 4°C
Dew Point: 23°F , -5°C
Humidity: 46%
Barometer: 30.18 inHg , 1022 hPa
Clouds: Few Clouds
Visibility: 10 miles , 16 km
Cloud details: Few Clouds 14000 ft
2019/02/21 20:56 KTBN 212056Z AUTO 07006KT 10SM FEW140 06/M05 A3018 RMK AO2 SLP231 T00561048 55010 $
KJLN - Joplin, Missouri
Updated: Thu, Feb-Thu-2019 2:53pm
Clear
Clear
 Wind from ESE
Wind: ESE 13 mph , 20 km/h
Temperature: 46°F , 8°C
Wind Chill: 40°F , 4°C
Dew Point: 25°F , -4°C
Humidity: 43%
Barometer: 30.12 inHg , 1020 hPa
Clouds: Clear
Visibility: 10 miles , 16 km
2019/02/21 20:53 KJLN 212053Z 12011KT 10SM CLR 08/M04 A3012 RMK AO2 SLP203 T00781039 56008
KHFJ - Monett, Missouri
Updated: Thu, Feb-Thu-2019 3:35pm
Mostly cloudy
Mostly cloudy
 Wind from E
Wind: E 8 mph , 13 km/h
Temperature: 43°F , 6°C
Wind Chill: 38°F , 3°C
Dew Point: 28°F , -2°C
Humidity: 57%
Barometer: 30.11 inHg , 1019.6 hPa
Clouds: Mostly cloudy
Visibility: 10 miles , 16 km
Cloud details: Mostly cloudy 12000 ft
2019/02/21 21:35 KHFJ 212135Z AUTO 10007KT 10SM BKN120 06/M02 A3011 RMK AO2
 
KSGF - Springfield, Missouri
Updated: Thu, Feb-Thu-2019 2:52pm
Clear
Clear
 Wind from E
Wind: E 9 mph , 15 km/h
Temperature: 46°F , 8°C
Wind Chill: 41°F , 5°C
Dew Point: 23°F , -5°C
Humidity: 40%
Barometer: 30.13 inHg , 1020.3 hPa
Clouds: Clear
Visibility: 10 miles , 16 km
2019/02/21 20:52 KSGF 212052Z 09008KT 10SM CLR 08/M05 A3013 RMK AO2 SLP210 T00781050 55004
KBBG - Branson, Missouri
Updated: Thu, Feb-Thu-2019 2:48pm
Overcast
Overcast
 Wind from E
Wind: E 7 mph , 11 km/h
Temperature: 41°F , 5°C
Wind Chill: 36°F , 2°C
Dew Point: 23°F , -5°C
Humidity: 49%
Barometer: 30.12 inHg , 1020 hPa
Clouds: Overcast
Visibility: 10 miles , 16 km
Cloud details: Overcast 18000 ft
2019/02/21 20:48 KBBG 212048Z 08006KT 10SM OVC180 05/M05 A3012
KUNO - West Plains, Missouri
Updated: Thu, Feb-Thu-2019 2:53pm
Few Clouds
Few Clouds
 Wind from ENE
Wind: ENE 9 mph , 15 km/h
Temperature: 45°F , 7°C
Wind Chill: 40°F , 4°C
Dew Point: 27°F , -3°C
Humidity: 49%
Barometer: 30.15 inHg , 1021 hPa
Clouds: Few Clouds
Visibility: 10 miles , 16 km
Cloud details: Few Clouds 12000 ft
2019/02/21 20:53 KUNO 212053Z AUTO 07008KT 10SM FEW120 07/M03 A3015 RMK AO2 SLP217 T00721033 58013
 
KFAM - Farmington, Missouri
Updated: Thu, Feb-Thu-2019 2:56pm
Clear
Clear
 Wind from NE
Wind: NE 7 mph , 11 km/h
Temperature: 43°F , 6°C
Wind Chill: 39°F , 4°C
Dew Point: 25°F , -4°C
Humidity: 49%
Barometer: 30.22 inHg , 1023.4 hPa
Clouds: Clear
Visibility: 10 miles , 16 km
2019/02/21 20:56 KFAM 212056Z AUTO 04006KT 10SM CLR 06/M04 A3022 RMK AO2 SLP237 T00611039 56009
KCGI - Cape Girardeau, Missouri
Updated: Thu, Feb-Thu-2019 2:53pm
Clear
Clear
 Wind from NE
Wind: NE 9 mph , 15 km/h
Temperature: 46°F , 8°C
Wind Chill: 41°F , 5°C
Dew Point: 28°F , -2°C
Humidity: 50%
Barometer: 30.21 inHg , 1023 hPa
Clouds: Clear
Visibility: 10 miles , 16 km
2019/02/21 20:53 KCGI 212053Z AUTO 04008KT 10SM CLR 08/M02 A3021 RMK AO2 SLP231 T00781017 56013
KSTL - St. Louis, Missouri
Updated: Thu, Feb-Thu-2019 2:51pm
Overcast
Overcast
 Wind from N
Wind: N 6 mph , 9 km/h
Temperature: 43°F , 6°C
Wind Chill: 39°F , 4°C
Dew Point: 25°F , -4°C
Humidity: 49%
Barometer: 30.25 inHg , 1024.4 hPa
Clouds: Overcast
Visibility: 10 miles , 16 km
Cloud details: Overcast 16000 ft
2019/02/21 20:51 KSTL 212051Z 35005KT 10SM OVC160 06/M04 A3025 RMK AO2 SLP252 T00611044
 
KPOF - Popular Bluff, Missouri
Updated: Thu, Feb-Thu-2019 2:53pm
Mostly cloudy
Mostly cloudy
 Wind from ENE
Wind: ENE 9 mph , 15 km/h
Temperature: 45°F , 7°C
Wind Chill: 40°F , 4°C
Dew Point: 34°F , 1°C
Humidity: 66%
Barometer: 30.17 inHg , 1021.7 hPa
Clouds: Mostly cloudy
Visibility: 10 miles , 16 km
Cloud details: Mostly cloudy 11000 ft
2019/02/21 20:53 KPOF 212053Z AUTO 06008KT 10SM BKN110 07/01 A3017 RMK AO2 PRESFR SLP222 T00670006 58024
KSET - St. Charles, Missouri
Updated: Thu, Feb-Thu-2019 2:54pm
Clear
Clear
 Wind from ENE
Wind: ENE 5 mph , 7 km/h
Temperature: 43°F , 6°C
Wind Chill: 40°F , 4°C
Dew Point: 27°F , -3°C
Humidity: 53%
Barometer: 30.26 inHg , 1024.7 hPa
Clouds: Clear
Visibility: 10 miles , 16 km
2019/02/21 20:54 KSET 212054Z AUTO 06004KT 10SM CLR 06/M03 A3026 RMK AO2 SLP248 T00561028 55004
KGLD - Goodland, Kansas
Updated: Thu, Feb-Thu-2019 3:33pm
Mostly cloudy
Mostly cloudy
 Wind from SSE
Wind: SSE 14 mph , 22 km/h
Temperature: 36°F , 2°C
Wind Chill: 27°F , -3°C
Dew Point: 27°F , -3°C
Humidity: 70%
Barometer: 29.81 inHg , 1009.5 hPa
Clouds: Mostly cloudy
Visibility: 10 miles , 16 km
Cloud details: Mostly cloudy 2200 ft
Mostly cloudy 10000 ft
2019/02/21 21:33 KGLD 212133Z AUTO 15012KT 10SM BKN022 BKN100 02/M03 A2981 RMK AO2 T00171033 FZRANO $
 
KHLC - Hill City, Kansas
Updated: Thu, Feb-Thu-2019 2:53pm
Overcast
Overcast
 Wind from SE
Wind: SE 15 mph , 24 km/h, Gust: 26 mph , 43 km/h
Temperature: 45°F , 7°C
Wind Chill: 38°F , 3°C
Dew Point: 32°F , 0°C
Humidity: 61%
Barometer: 29.91 inHg , 1012.9 hPa
Clouds: Overcast
Visibility: 9 miles , 14 km
Cloud details: Overcast 3400 ft
2019/02/21 20:53 KHLC 212053Z AUTO 14013G23KT 9SM OVC034 07/00 A2991 RMK AO2 SLP148 T00670000 56015
KHYS - Hays Muni, Kansas
Updated: Thu, Feb-Thu-2019 2:56pm
Overcast
Overcast
 Wind from SSE
Wind: SSE 23 mph , 37 km/h, Gust: 28 mph , 44 km/h
Temperature: 45°F , 7°C
Wind Chill: 36°F , 2°C
Dew Point: 32°F , 0°C
Humidity: 61%
Barometer: 29.93 inHg , 1013.5 hPa
Clouds: Overcast
Visibility: 10 miles , 16 km
Cloud details: Few Clouds 2900 ft
Mostly cloudy 7000 ft
Overcast 8000 ft
2019/02/21 20:56 KHYS 212056Z AUTO 15020G24KT 10SM FEW029 BKN070 OVC080 07/00 A2993 RMK AO2 SLP153 T00670000 56013
KRSL - Russell, Kansas
Updated: Thu, Feb-Thu-2019 2:53pm
Overcast
Overcast
 Wind from SE
Wind: SE 28 mph , 44 km/h, Gust: 38 mph , 61 km/h
Temperature: 39°F , 4°C
Wind Chill: 27°F , -3°C
Dew Point: 30°F , -1°C
Humidity: 70%
Barometer: 29.94 inHg , 1013.9 hPa
Clouds: Overcast
Visibility: 10 miles , 16 km
Cloud details: Mostly cloudy 10000 ft
Overcast 12000 ft
2019/02/21 20:53 KRSL 212053Z AUTO 14024G33KT 10SM BKN100 OVC120 04/M01 A2994 RMK AO2 PK WND 14036/2001 SLP154 T00391011 58016
 
KGBD - Great Bend, Kansas
Updated: Thu, Feb-Thu-2019 2:56pm
Partly cloudy
Partly cloudy
 Wind from SE
Wind: SE 24 mph , 39 km/h, Gust: 33 mph , 54 km/h
Temperature: 43°F , 6°C
Wind Chill: 34°F , 1°C
Dew Point: 32°F , 0°C
Humidity: 66%
Barometer: 29.93 inHg , 1013.5 hPa
Clouds: Partly cloudy
Visibility: 10 miles , 16 km
Cloud details: Partly cloudy 7500 ft
2019/02/21 20:56 KGBD 212056Z AUTO 13021G29KT 10SM SCT075 06/00 A2993 RMK AO2 PK WND 14030/2032 SLP151 T00560000 58009
KDDC - Dodge City, Kansas
Updated: Thu, Feb-Thu-2019 2:52pm
Clear
Clear
 Wind from SSE
Wind: SSE 30 mph , 48 km/h, Gust: 40 mph , 65 km/h
Temperature: 52°F , 11°C
Dew Point: 28°F , -2°C
Humidity: 41%
Barometer: 29.83 inHg , 1010.2 hPa
Clouds: Clear
Visibility: 10 miles , 16 km
2019/02/21 20:52 KDDC 212052Z AUTO 15026G35KT 10SM CLR 11/M02 A2983 RMK AO2 PK WND 15037/2029 SLP110 T01111017 58023
KPTT - Pratt Indust, Kansas
Updated: Thu, Feb-Thu-2019 3:15pm
Mostly cloudy
Mostly cloudy
 Wind from SE
Wind: SE 21 mph , 33 km/h, Gust: 24 mph , 39 km/h
Temperature: 45°F , 7°C
Wind Chill: 37°F , 3°C
Dew Point: 34°F , 1°C
Humidity: 66%
Barometer: 29.94 inHg , 1013.9 hPa
Clouds: Mostly cloudy
Visibility: 10 miles , 16 km
Cloud details: Mostly cloudy 11000 ft
2019/02/21 21:15 KPTT 212115Z AUTO 14018G21KT 10SM BKN110 07/01 A2994 RMK AO2 T00660014
 
KSLN - Salina, Kansas
Updated: Thu, Feb-Thu-2019 2:53pm
Partly cloudy
Partly cloudy
 Wind from SE
Wind: SE 13 mph , 20 km/h
Temperature: 45°F , 7°C
Wind Chill: 39°F , 4°C
Dew Point: 25°F , -4°C
Humidity: 46%
Barometer: 30.06 inHg , 1017.9 hPa
Clouds: Partly cloudy
Visibility: 10 miles , 16 km
Cloud details: Few Clouds 7000 ft
Partly cloudy 9000 ft
2019/02/21 20:53 KSLN 212053Z 13011KT 10SM FEW070 SCT090 07/M04 A3006 RMK AO2 SLP189 T00721039 53003
KHUT - Hutchinson, Kansas
Updated: Thu, Feb-Thu-2019 2:52pm
Mostly cloudy
Mostly cloudy
 Wind from S
Wind: S 9 mph , 15 km/h
Temperature: 41°F , 5°C
Wind Chill: 35°F , 2°C
Dew Point: 32°F , 0°C
Humidity: 70%
Barometer: 30.01 inHg , 1016.3 hPa
Clouds: Mostly cloudy
Visibility: 10 miles , 16 km
Cloud details: Mostly cloudy 12000 ft
2019/02/21 20:52 KHUT 212052Z 17008KT 10SM BKN120 05/00 A3001 RMK AO2 SLP172 T00500000 56001
KGCK - Garden City, Kansas
Updated: Thu, Feb-Thu-2019 2:54pm
Overcast
Overcast
 Wind from SE
Wind: SE 14 mph , 22 km/h
Temperature: 45°F , 7°C
Wind Chill: 39°F , 4°C
Dew Point: 30°F , -1°C
Humidity: 57%
Barometer: 29.81 inHg , 1009.5 hPa
Clouds: Overcast
Visibility: 10 miles , 16 km
Cloud details: Overcast 7500 ft
2019/02/21 20:54 KGCK 212054Z 13012KT 10SM OVC075 07/M01 A2981 RMK AO2 SLP107 T00721006 58020
 
KP28 - Medicine Lodge, Kansas
Updated: Thu, Feb-Thu-2019 2:56pm

 Wind from E
Wind: E 10 mph , 17 km/h
Temperature: 45°F , 7°C
Wind Chill: 40°F , 4°C
Dew Point: 36°F , 2°C
Humidity: 71%
Barometer: 29.96 inHg , 1014.6 hPa
2019/02/21 20:56 KP28 212056Z AUTO 09009KT 07/02 A2996 RMK AO1 SLP158 T00670017 58014
KICT - Wichita, Kansas
Updated: Thu, Feb-Thu-2019 2:53pm
Mostly cloudy
Mostly cloudy
 Wind from SSE
Wind: SSE 20 mph , 31 km/h, Gust: 28 mph , 44 km/h
Temperature: 50°F , 10°C
Wind Chill: 44°F , 7°C
Dew Point: 34°F , 1°C
Humidity: 54%
Barometer: 30.02 inHg , 1016.6 hPa
Clouds: Mostly cloudy
Visibility: 10 miles , 16 km
Cloud details: Few Clouds 11000 ft
Partly cloudy 14000 ft
Partly cloudy 22000 ft
Mostly cloudy 30000 ft
2019/02/21 20:53 KICT 212053Z 15017G24KT 10SM FEW110 SCT140 SCT220 BKN300 10/01 A3002 RMK AO2 PK WND 13028/2039 SLP171 T01000011 55009 $
KRSL - Russell, Kansas
Updated: Thu, Feb-Thu-2019 2:53pm
Overcast
Overcast
 Wind from SE
Wind: SE 28 mph , 44 km/h, Gust: 38 mph , 61 km/h
Temperature: 39°F , 4°C
Wind Chill: 27°F , -3°C
Dew Point: 30°F , -1°C
Humidity: 70%
Barometer: 29.94 inHg , 1013.9 hPa
Clouds: Overcast
Visibility: 10 miles , 16 km
Cloud details: Mostly cloudy 10000 ft
Overcast 12000 ft
2019/02/21 20:53 KRSL 212053Z AUTO 14024G33KT 10SM BKN100 OVC120 04/M01 A2994 RMK AO2 PK WND 14036/2001 SLP154 T00391011 58016
 
KMHK - Manhattan, Kansas
Updated: Thu, Feb-Thu-2019 2:52pm
Overcast
Overcast
 Wind from ESE
Wind: ESE 10 mph , 17 km/h, Gust: 21 mph , 33 km/h
Temperature: 43°F , 6°C
Wind Chill: 37°F , 3°C
Dew Point: 25°F , -4°C
Humidity: 49%
Barometer: 30.10 inHg , 1019.3 hPa
Clouds: Overcast
Visibility: 10 miles , 16 km
Cloud details: Overcast 11000 ft
2019/02/21 20:52 KMHK 212052Z 12009G18KT 10SM OVC110 06/M04 A3010 RMK AO2 SLP205 T00561039 55003
KEMP - Emporia, Kansas
Updated: Thu, Feb-Thu-2019 2:53pm
Clear
Clear
 Wind from ESE
Wind: ESE 15 mph , 24 km/h, Gust: 22 mph , 35 km/h
Temperature: 43°F , 6°C
Wind Chill: 36°F , 2°C
Dew Point: 27°F , -3°C
Humidity: 53%
Barometer: 30.08 inHg , 1018.6 hPa
Clouds: Clear
Visibility: 10 miles , 16 km
2019/02/21 20:53 KEMP 212053Z AUTO 11013G19KT 10SM CLR 06/M03 A3008 RMK AO2 SLP200 T00611028 56007
KTOP - Topeka, Kansas
Updated: Thu, Feb-Thu-2019 2:53pm
Clear
Clear
 Wind from E
Wind: E 14 mph , 22 km/h
Temperature: 43°F , 6°C
Wind Chill: 36°F , 2°C
Dew Point: 23°F , -5°C
Humidity: 46%
Barometer: 30.13 inHg , 1020.3 hPa
Clouds: Clear
Visibility: 10 miles , 16 km
2019/02/21 20:53 KTOP 212053Z 10012KT 10SM CLR 06/M05 A3013 RMK AO2 SLP210 T00561050 55010
 
KCNU - Chanute, Kansas
Updated: Thu, Feb-Thu-2019 2:52pm
Clear
Clear
 Wind from ESE
Wind: ESE 12 mph , 19 km/h
Temperature: 46°F , 8°C
Wind Chill: 40°F , 4°C
Dew Point: 28°F , -2°C
Humidity: 50%
Barometer: 30.11 inHg , 1019.6 hPa
Clouds: Clear
Visibility: 10 miles , 16 km
2019/02/21 20:52 KCNU 212052Z AUTO 12010KT 10SM CLR 08/M02 A3011 RMK AO2 SLP202 T00831022 58006
KLWC - Lawrence, Kansas
Updated: Thu, Feb-Thu-2019 2:52pm
Clear
Clear
 Wind from ESE
Wind: ESE 10 mph , 17 km/h
Temperature: 39°F , 4°C
Wind Chill: 32°F , 0°C
Dew Point: 25°F , -4°C
Humidity: 56%
Barometer: 30.15 inHg , 1021 hPa
Clouds: Clear
Visibility: 8 miles , 13 km
2019/02/21 20:52 KLWC 212052Z AUTO 11009KT 8SM CLR 04/M04 A3015 RMK AO2 SLP217 T00441044 55009
KPPF - Parsons, Kansas
Updated: Thu, Feb-Thu-2019 2:52pm
Clear
Clear
 Wind from varies
Wind: varies 6 mph , 9 km/h
Temperature: 46°F , 8°C
Wind Chill: 43°F , 6°C
Dew Point: 28°F , -2°C
Humidity: 50%
Barometer: 30.11 inHg , 1019.6 hPa
Clouds: Clear
Visibility: 10 miles , 16 km
2019/02/21 20:52 KPPF 212052Z AUTO VRB05KT 10SM CLR 08/M02 A3011 RMK AO2 SLP200 T00831022 56012
 
KIDP - Independence, Kansas
Updated: Thu, Feb-Thu-2019 3:15pm
Clear
Clear
 Wind from ESE
Wind: ESE 14 mph , 22 km/h
Temperature: 48°F , 9°C
Wind Chill: 42°F , 6°C
Dew Point: 34°F , 1°C
Humidity: 58%
Barometer: 30.09 inHg , 1019 hPa
Clouds: Clear
Visibility: 10 miles , 16 km
2019/02/21 21:15 KIDP 212115Z AUTO 12012KT 10SM CLR 09/01 A3009 RMK AO2 T00900011
KOJC - Olathe, Kansas
Updated: Thu, Feb-Thu-2019 2:53pm
Clear
Clear
 Wind from ESE
Wind: ESE 10 mph , 17 km/h
Temperature: 37°F , 3°C
Wind Chill: 30°F , -1°C
Dew Point: 21°F , -6°C
Humidity: 52%
Barometer: 30.15 inHg , 1021 hPa
Clouds: Clear
Visibility: 10 miles , 16 km
2019/02/21 20:53 KOJC 212053Z 12009KT 10SM CLR 03/M06 A3015 RMK AO2 SLP219 T00331056 55004
KCFV - Coffeyville, Kansas
Updated: Thu, Feb-Thu-2019 2:52pm
Clear
Clear
 Wind from ESE
Wind: ESE 9 mph , 15 km/h
Temperature: 46°F , 8°C
Wind Chill: 41°F , 5°C
Dew Point: 32°F , 0°C
Humidity: 57%
Barometer: 30.10 inHg , 1019.3 hPa
Clouds: Clear
Visibility: 10 miles , 16 km
2019/02/21 20:52 KCFV 212052Z AUTO 11008KT 10SM CLR 08/00 A3010 RMK AO2 SLP196 T00830000 56012
 
KPTS - Pittsburg, Kansas
Updated: Thu, Feb-Thu-2019 3:35pm
Clear
Clear
 Wind from ESE
Wind: ESE 8 mph , 13 km/h
Temperature: 45°F , 7°C
Wind Chill: 41°F , 5°C
Dew Point: 27°F , -3°C
Humidity: 49%
Barometer: 30.11 inHg , 1019.6 hPa
Clouds: Clear
Visibility: 10 miles , 16 km
2019/02/21 21:35 KPTS 212135Z AUTO 11007KT 10SM CLR 07/M03 A3011 RMK AO2 T00701026
KLGA - New York City, New York
Updated: Thu, Feb-Thu-2019 2:51pm
Partly cloudy
Partly cloudy
 Wind from W
Wind: W 12 mph , 19 km/h
Temperature: 52°F , 11°C
Dew Point: 34°F , 1°C
Humidity: 50%
Barometer: 29.95 inHg , 1014.2 hPa
Clouds: Partly cloudy
Visibility: 10 miles , 16 km
Cloud details: Few Clouds 3500 ft
Partly cloudy 25000 ft
2019/02/21 20:51 KLGA 212051Z 26010KT 10SM FEW035 SCT250 11/01 A2995 RMK AO2 SLP140 T01060006 53001
KCLT - Charlotte, North Carolina
Updated: Thu, Feb-Thu-2019 2:52pm
Mostly cloudy
Mostly cloudy
 Wind from S
Wind: S 9 mph , 15 km/h
Temperature: 63°F , 17°C
Dew Point: 55°F , 13°C
Humidity: 77%
Barometer: 30.08 inHg , 1018.6 hPa
Clouds: Mostly cloudy
Visibility: 10 miles , 16 km
Cloud details: Partly cloudy 2800 ft
Partly cloudy 14000 ft
Mostly cloudy 25000 ft
2019/02/21 20:52 KCLT 212052Z 19008KT 10SM SCT028 SCT140 BKN250 17/13 A3008 RMK AO2 SLP186 T01720133 55003
 
KATL - Atlanta, Georgia
Updated: Thu, Feb-Thu-2019 3:28pm
Mist, Mostly cloudy
Mist, Mostly cloudy
 Wind from E
Wind: E 7 mph , 11 km/h
Temperature: 63°F , 17°C
Dew Point: 59°F , 15°C
Humidity: 88%
Barometer: 30.07 inHg , 1018.3 hPa
Summary: Mist
Clouds: Mostly cloudy
Visibility: 3 miles , 5 km
Cloud details: Few Clouds 800 ft
Partly cloudy 1000 ft
Mostly cloudy 8000 ft
2019/02/21 21:28 KATL 212128Z 09006KT 3SM BR FEW008 SCT010 BKN080 17/15 A3007 RMK AO2 SFC VIS 6 T01720150
KORL - Orlando, Florida
Updated: Thu, Feb-Thu-2019 2:53pm
Mostly cloudy
Mostly cloudy
 Wind from S
Wind: S 6 mph , 9 km/h
Temperature: 84°F , 29°C
Heat Index: 87°F , 31°C
Dew Point: 68°F , 20°C
Humidity: 58%
Barometer: 30.07 inHg , 1018.3 hPa
Clouds: Mostly cloudy
Visibility: 10 miles , 16 km
Cloud details: Few Clouds 5000 ft
Mostly cloudy 8500 ft
2019/02/21 20:53 KORL 212053Z AUTO 17005KT 10SM FEW050 BKN085 29/20 A3007 RMK AO2 SLP185 60000 T02890200 56020
KMSP - Minneapolis, Minnesota
Updated: Thu, Feb-Thu-2019 2:53pm
Clear
Clear
 Wind from SW
Wind: SW 6 mph , 9 km/h
Temperature: 19°F , -7°C
Wind Chill: 11°F , -12°C
Dew Point: 12°F , -11°C
Humidity: 73%
Barometer: 30.20 inHg , 1022.7 hPa
Clouds: Clear
Visibility: 9 miles , 14 km
2019/02/21 20:53 KMSP 212053Z 23005KT 9SM CLR M07/M11 A3020 RMK AO2 SLP243 60000 T10671106 51006
 
KORD - Chicago, Illinois
Updated: Thu, Feb-Thu-2019 2:51pm
Mostly cloudy
Mostly cloudy
 Wind from W
Wind: W 13 mph , 20 km/h, Gust: 21 mph , 33 km/h
Temperature: 30°F , -1°C
Wind Chill: 20°F , -7°C
Dew Point: 18°F , -8°C
Humidity: 59%
Barometer: 30.20 inHg , 1022.7 hPa
Clouds: Mostly cloudy
Visibility: 10 miles , 16 km
Cloud details: Mostly cloudy 25000 ft
2019/02/21 20:51 KORD 212051Z 26011G18KT 10SM BKN250 M01/M08 A3020 RMK AO2 SLP234 T10061083 53003
KDFW - Dallas/Ft Worth, Texas
Updated: Thu, Feb-Thu-2019 2:53pm
Overcast
Overcast
 Wind from ESE
Wind: ESE 14 mph , 22 km/h
Temperature: 52°F , 11°C
Dew Point: 39°F , 4°C
Humidity: 62%
Barometer: 29.94 inHg , 1013.9 hPa
Clouds: Overcast
Visibility: 10 miles , 16 km
Cloud details: Few Clouds 8000 ft
Partly cloudy 13000 ft
Overcast 25000 ft
2019/02/21 20:53 KDFW 212053Z 11012KT 10SM FEW080 SCT130 OVC250 11/04 A2994 RMK AO2 SLP138 T01110039 58023
KHOU - Houston, Texas
Updated: Thu, Feb-Thu-2019 2:53pm
Light drizzle, Mist, Overcast
Light drizzle, Mist, Overcast
 Wind from NNE
Wind: NNE 10 mph , 17 km/h
Temperature: 54°F , 12°C
Dew Point: 52°F , 11°C
Humidity: 94%
Barometer: 29.87 inHg , 1011.5 hPa
Summary: Light drizzle, Mist
Clouds: Overcast
Visibility: 2 miles , 3 km
Cloud details: Overcast 300 ft
2019/02/21 20:53 KHOU 212053Z 03009KT 2SM -DZ BR OVC003 12/11 A2987 RMK AO2 SLP120 P0000 60000 T01220111 56017
 
KDEN - Denver, Colorado
Updated: Thu, Feb-Thu-2019 2:53pm
Mostly cloudy
Mostly cloudy
 Wind from N
Wind: N 7 mph , 11 km/h
Temperature: 30°F , -1°C
Wind Chill: 23°F , -5°C
Dew Point: 10°F , -12°C
Humidity: 43%
Barometer: 29.71 inHg , 1006.1 hPa
Clouds: Mostly cloudy
Visibility: 10 miles , 16 km
Cloud details: Few Clouds 10000 ft
Few Clouds 15000 ft
Mostly cloudy 22000 ft
2019/02/21 20:53 KDEN 212053Z 35006KT 10SM FEW100 FEW150 BKN220 M01/M12 A2971 RMK AO2 SLP087 T10061117 55009
KSFO - San Francisco, California
Updated: Thu, Feb-Thu-2019 2:56pm
Few Clouds
Few Clouds
 Wind from N
Wind: N 13 mph , 20 km/h
Temperature: 54°F , 12°C
Dew Point: 30°F , -1°C
Humidity: 41%
Barometer: 29.75 inHg , 1007.5 hPa
Clouds: Few Clouds
Visibility: 10 miles , 16 km
Cloud details: Few Clouds 3500 ft
2019/02/21 20:56 KSFO 212056Z 35011KT 10SM FEW035 12/M01 A2975 RMK AO2 SLP074 T01171011 58003
KLAX - Los Angeles, California
Updated: Thu, Feb-Thu-2019 2:53pm
Mostly cloudy
Mostly cloudy
 Wind from W
Wind: W 15 mph , 24 km/h, Gust: 18 mph , 30 km/h
Temperature: 55°F , 13°C
Dew Point: 36°F , 2°C
Humidity: 47%
Barometer: 29.60 inHg , 1002.4 hPa
Clouds: Mostly cloudy
Visibility: 10 miles , 16 km
Cloud details: Few Clouds 2500 ft
Few Clouds 11000 ft
Partly cloudy 16000 ft
Mostly cloudy 20000 ft
2019/02/21 20:53 KLAX 212053Z 26013G16KT 10SM FEW025 FEW110 SCT160 BKN200 13/02 A2960 RMK AO2 SLP024 T01330017 58012 $